Hlavní strana
METAR-TAF:

METAR-TAF

Letiště :

Errachidia, Maroko

zeměpisná šířka: 31-56N, zeměpisná délka: 004-24W, výška: 1034 m

Aktuální stav počasí

Zpráva byla vytvořena před 21 minutami, v 00:00 UTC
Severní vítr 9 kt
Teplota 11°C
Vlhkost vzduchu 62%
Tlak 1025 hPa
Viditelnost 10 km a více
Žádná oblačnost pod 1500 m, nevyskytují se cumulonimby.

METAR: GMFK 080000Z 35009KT CAVOK 11/04 Q1025 NOSIG

Čas: 01:21 (00:21 UTC)

Předpověď počasí

Zpráva byla vytvořena před 1 hodinou a 21 minutami, v 23:00 UTC
Předpověď platná od 08 v 00 UTC do 09 v 06 UTC
Severní vítr 9 kt
Viditelnost 10 km a více
Žádná oblačnost pod 1500 m, nevyskytují se cumulonimby.

TAF: GMFK 072300Z 0800/0906 35009KT CAVOK

Stav a předpovědi počasí z více než 4 000 letišť (zprávy METAR a TAF).

Červené a žluté tečky na mapě představují dostupné meteorologické stanice.

Když kurzor umístíte na tečku, zobrazí se název stanice.

Pak kliknutím zobrazíte stav a předpověď počasí.

Chcete-li změnit mapu, kliknutím na zelené tlačítko se znaménkem +mapu přiblížíte, kliknutím na zelené tlačítko se znaménkem – mapu oddálíte a kliknutím na zelené šipky přejdete na sousední mapy.


METAR-TAF: